Aeroporto :
LOGIN :

Iscrizione | Disclaimer

   EN    FR    IT 

 










Sommario :    VFR   VFR Marginale   IFR   IFR Intensivo   IFR Molto Intensivo
Visibilità : 
Base nubi : 
>= 8 km
>= 3000ft
5 / 8 km
1000 / 3000 ft
1500m / 5 km
500 / 1000 ft
800 / 1500m
200 / 500 ft
< 800m
< 200 ft
Simboli :   Temporali  Nebbia  Neve Forte  Precipitazioni Forti  Vento > 20 kt
SIGMETs :   Varie  Temporali  Ghiacco  Turbolenza  Onda orograficha  Ceneri Vulcaniche






- Altitudine del aeroporto : 230 ft
- Codice IATA : VAR


LBWN - Varna

ULTIMO METAR :
  • 130130Z 26013KT 220V340 9999 FEW023 16/11 Q1014 NOSIG

METARs OBSOLETI :
  • 130100Z 28012KT 250V320 CAVOK 16/11 Q1014 NOSIG
  • 130030Z 31011KT 280V340 CAVOK 17/11 Q1014 NOSIG
  • 130000Z 30014KT CAVOK 17/12 Q1014 NOSIG
  • 122330Z 28010KT 230V340 CAVOK 18/12 Q1014 NOSIG
  • 122300Z 28009KT 240V340 CAVOK 19/12 Q1014 NOSIG

TAF TAF LBWN
Valido dal 13 a 00 ore il 14 a 00 ore UTC


122300Z 1300/1324 33010KT CAVOK
BECMG 1302/1304 36020G30KT SCT030
PROB30
TEMPO 1304/1312 5000 SHRA FEW020CB
BECMG 1315/1317 34010KT



MetMap, La meteo Aeronautica in un colpo d'occhio ! - Copyright ORBIFLY Dicembre 2007 - Disclaimer

ORBIFLY MET'MAP TEAM :

Programmazione e sviluppo : Alexandra Zaïnal
Concezione : Baudouin d'Aumeries
Aiuto per la programmazione : Marc-Olivier Méhu
Supporto tecnico e logistico : Manuel Goepfert
Aiuto per la traduzione : Arnaldo La Scala

Contatto : metmap@orbifly.com




FONTI E CREDITI :

   NOAA